Time;durP1;ratioP1;P1;durP2;ratioP2;P2;SDS_P1;SDS_P2;PMS_P1;PMS_P2;Temp;Humidity;BMP_temperature;BMP_pressure;BME280_temperature;BME280_humidity;BME280_pressure;Samples;Min_cycle;Max_cycle;Signal;HPM_P1;HPM_P2
2022/03/19 00:04:08;;;;;;;;;;;;;;;21.88;30.49;97617.69;10435603;28;2107;-51
2022/03/19 00:09:08;;;;;;;;;;;;;;;21.85;30.34;97620.78;10450260;28;1969;-54
2022/03/19 00:14:12;;;;;;;;;;;;;;;21.82;30.39;97616.78;10452169;28;1851;-51
2022/03/19 00:19:12;;;;;;;;;;;;;;;21.86;30.27;97617.13;10428918;28;1833;-56
2022/03/19 00:24:12;;;;;;;;;;;;;;;21.86;29.99;97617.13;10440556;28;1846;-54
2022/03/19 00:29:16;;;;;;;;;;;;;;;21.85;30.16;97618.16;10433154;28;1906;-54
2022/03/19 00:34:17;;;;;;;;;;;;;;;21.85;29.89;97613.69;10432204;28;2107;-55
2022/03/19 00:39:18;;;;;;;;;;;;;;;21.86;29.52;97614.50;10448121;28;1898;-53
2022/03/19 00:44:21;;;;;;;;;;;;;;;21.86;29.66;97606.56;10453614;28;1964;-51
2022/03/19 00:49:22;;;;;;;;;;;;;;;21.88;29.60;97601.84;10431303;28;2358;-54
2022/03/19 00:54:22;;;;;;;;;;;;;;;21.85;29.42;97607.59;10430324;28;1897;-52
2022/03/19 00:59:23;;;;;;;;;;;;;;;21.84;29.43;97600.72;10426020;28;1918;-53
2022/03/19 01:04:23;;;;;;;;;;;;;;;21.81;29.55;97594.06;10427340;28;1854;-51
2022/03/19 01:09:25;;;;;;;;;;;;;;;21.85;29.32;97592.56;10428851;28;1906;-54
2022/03/19 01:14:25;;;;;;;;;;;;;;;21.85;29.16;97587.28;10425672;28;2017;-53
2022/03/19 01:24:45;;;;;;;;;;;;;;;21.83;29.13;97570.06;10436618;28;1902;-51
2022/03/19 01:29:46;;;;;;;;;;;;;;;21.88;28.92;97570.16;10430521;28;2344;-52
2022/03/19 01:34:47;;;;;;;;;;;;;;;21.87;28.81;97552.72;10427609;28;2257;-52
2022/03/19 01:39:47;;;;;;;;;;;;;;;21.89;28.94;97555.91;10428167;28;1955;-53
2022/03/19 01:44:48;;;;;;;;;;;;;;;21.88;28.77;97545.59;10437178;28;1916;-50
2022/03/19 01:49:49;;;;;;;;;;;;;;;21.86;28.87;97548.50;10436295;28;1828;-56
2022/03/19 01:54:49;;;;;;;;;;;;;;;21.89;28.67;97542.72;10436596;28;2031;-56
2022/03/19 01:59:50;;;;;;;;;;;;;;;21.89;28.63;97532.16;10434930;28;1862;-54
2022/03/19 02:04:50;;;;;;;;;;;;;;;21.90;28.46;97532.97;10433887;28;1909;-54
2022/03/19 02:09:51;;;;;;;;;;;;;;;21.89;28.45;97534.78;10427554;28;1901;-55
2022/03/19 02:14:51;;;;;;;;;;;;;;;21.89;28.57;97524.22;10439035;28;1880;-52
2022/03/19 02:19:53;;;;;;;;;;;;;;;21.90;28.48;97528.50;10427855;28;1876;-53
2022/03/19 02:30:14;;;;;;;;;;;;;;;21.88;28.35;97522.66;10426959;28;1797;-51
2022/03/19 02:35:15;;;;;;;;;;;;;;;21.88;28.29;97519.19;10426988;28;1893;-53
2022/03/19 02:40:17;;;;;;;;;;;;;;;21.90;28.18;97523.22;10446695;28;1830;-56
2022/03/19 02:45:21;;;;;;;;;;;;;;;21.90;28.17;97512.66;10435487;28;2233;-51
2022/03/19 02:50:22;;;;;;;;;;;;;;;21.88;28.34;97512.09;10429994;28;1896;-54
2022/03/19 02:55:23;;;;;;;;;;;;;;;21.92;28.27;97502.66;10427216;28;1877;-55
2022/03/19 03:00:23;;;;;;;;;;;;;;;21.93;27.92;97504.22;10433304;28;1830;-56
2022/03/19 03:05:24;;;;;;;;;;;;;;;21.90;28.27;97503.91;10427123;28;1969;-56
2022/03/19 03:10:24;;;;;;;;;;;;;;;21.91;27.71;97500.25;10432449;28;2478;-53
2022/03/19 03:15:24;;;;;;;;;;;;;;;21.91;28.03;97505.53;10433145;28;1948;-54
2022/03/19 03:20:25;;;;;;;;;;;;;;;21.89;28.00;97505.75;10440988;28;1818;-56
2022/03/19 03:25:25;;;;;;;;;;;;;;;21.92;27.89;97501.84;10452504;28;2003;-56
2022/03/19 03:30:26;;;;;;;;;;;;;;;21.92;27.51;97502.66;10448685;28;1857;-55
2022/03/19 03:35:26;;;;;;;;;;;;;;;21.92;27.49;97491.28;10432091;28;1860;-56
2022/03/19 03:40:26;;;;;;;;;;;;;;;21.92;27.68;97488.63;10440827;28;1882;-55
2022/03/19 03:45:30;;;;;;;;;;;;;;;21.91;27.62;97490.47;10438509;28;1894;-53
2022/03/19 03:50:31;;;;;;;;;;;;;;;21.91;27.56;97501.03;10428384;28;1913;-51
2022/03/19 03:55:31;;;;;;;;;;;;;;;21.91;27.42;97498.41;10437850;28;1928;-54
2022/03/19 04:00:32;;;;;;;;;;;;;;;21.90;27.65;97498.63;10433586;28;1814;-53
2022/03/19 04:05:35;;;;;;;;;;;;;;;21.88;27.65;97485.69;10435974;28;1960;-56
2022/03/19 04:10:36;;;;;;;;;;;;;;;21.88;27.52;97481.19;10433820;28;1846;-56
2022/03/19 04:15:37;;;;;;;;;;;;;;;21.90;27.48;97482.81;10430551;28;1971;-55
2022/03/19 04:20:38;;;;;;;;;;;;;;;21.88;27.55;97475.13;10447903;28;1921;-51
2022/03/19 04:25:40;;;;;;;;;;;;;;;21.92;27.53;97475.44;10436993;28;1963;-53
2022/03/19 04:30:41;;;;;;;;;;;;;;;21.91;27.42;97479.13;10430638;28;1821;-51
2022/03/19 04:41:00;;;;;;;;;;;;;;;21.89;27.48;97474.06;10455314;28;1884;-52
2022/03/19 04:46:00;;;;;;;;;;;;;;;21.91;27.04;97469.34;10434859;28;1914;-51
2022/03/19 04:51:01;;;;;;;;;;;;;;;21.91;27.26;97471.22;10435283;28;1925;-51
2022/03/19 04:56:01;;;;;;;;;;;;;;;21.89;27.08;97463.50;10439288;28;1925;-52
2022/03/19 05:01:01;;;;;;;;;;;;;;;21.88;27.02;97475.13;10435345;28;2032;-51
2022/03/19 05:06:02;;;;;;;;;;;;;;;21.92;27.05;97470.97;10436252;28;1910;-55
2022/03/19 05:11:17;;;;;;;;;;;;;;;21.88;27.19;97469.84;10435237;28;1918;-52
2022/03/19 05:16:18;;;;;;;;;;;;;;;21.90;26.88;97462.50;10425206;28;1977;-55
2022/03/19 05:21:18;;;;;;;;;;;;;;;21.92;27.13;97459.59;10439428;28;1925;-53
2022/03/19 05:26:18;;;;;;;;;;;;;;;21.89;26.88;97458.22;10427967;28;1911;-54
2022/03/19 05:31:20;;;;;;;;;;;;;;;21.88;26.93;97448.72;10445307;28;1877;-52
2022/03/19 05:36:20;;;;;;;;;;;;;;;21.89;26.82;97452.94;10425592;28;1908;-55
2022/03/19 05:41:21;;;;;;;;;;;;;;;21.88;26.92;97446.09;10450480;22;2244;-56
2022/03/19 05:46:22;;;;;;;;;;;;;;;21.88;26.76;97443.44;10436042;28;2017;-55
2022/03/19 05:51:22;;;;;;;;;;;;;;;21.86;26.93;97448.16;10427911;28;1839;-56
2022/03/19 05:56:24;;;;;;;;;;;;;;;21.89;26.88;97447.66;10417972;28;1832;-52
2022/03/19 06:01:27;;;;;;;;;;;;;;;21.88;26.69;97445.28;10421519;28;2120;-55
2022/03/19 06:06:28;;;;;;;;;;;;;;;21.88;26.78;97450.56;10419556;28;2346;-55
2022/03/19 06:11:28;;;;;;;;;;;;;;;21.90;26.57;97446.66;10422089;28;1826;-59
2022/03/19 06:16:28;;;;;;;;;;;;;;;21.88;26.81;97438.16;10424931;28;2183;-55
2022/03/19 06:21:30;;;;;;;;;;;;;;;21.90;26.81;97446.66;10427124;28;2198;-52
2022/03/19 06:26:30;;;;;;;;;;;;;;;21.89;26.54;97431.81;10424264;28;2240;-54
2022/03/19 06:31:30;;;;;;;;;;;;;;;21.89;26.60;97437.09;10428310;28;2165;-52
2022/03/19 06:41:50;;;;;;;;;;;;;;;21.86;26.55;97427.81;10424032;28;1947;-54
2022/03/19 06:46:50;;;;;;;;;;;;;;;21.88;26.53;97421.53;10420444;28;2811;-54
2022/03/19 06:51:51;;;;;;;;;;;;;;;21.89;26.59;97423.91;10414808;28;2229;-56
2022/03/19 06:56:52;;;;;;;;;;;;;;;21.88;26.82;97422.31;10429147;28;1814;-54
2022/03/19 07:01:52;;;;;;;;;;;;;;;21.88;26.54;97417.03;10421026;28;1953;-55
2022/03/19 07:06:52;;;;;;;;;;;;;;;21.88;26.41;97417.81;10421402;28;1981;-52
2022/03/19 07:11:53;;;;;;;;;;;;;;;21.88;26.74;97405.69;10417096;28;1953;-55
2022/03/19 07:16:55;;;;;;;;;;;;;;;21.88;26.59;97404.63;10420786;28;2202;-57
2022/03/19 07:21:56;;;;;;;;;;;;;;;21.90;26.71;97399.13;10417247;28;1869;-55
2022/03/19 07:26:59;;;;;;;;;;;;;;;21.90;26.58;97407.03;10415506;28;1973;-54
2022/03/19 07:32:00;;;;;;;;;;;;;;;21.89;26.71;97397.50;10419790;28;1864;-55
2022/03/19 07:37:01;;;;;;;;;;;;;;;21.90;26.77;97401.75;10426128;28;1862;-52
2022/03/19 07:42:01;;;;;;;;;;;;;;;21.91;26.72;97403.34;10427574;28;1892;-55
2022/03/19 07:47:02;;;;;;;;;;;;;;;21.92;26.71;97396.22;10416399;28;1976;-54
2022/03/19 07:52:05;;;;;;;;;;;;;;;21.88;26.88;97395.94;10415046;28;1968;-53
2022/03/19 07:57:06;;;;;;;;;;;;;;;21.91;26.79;97384.88;10420693;28;1858;-56
2022/03/19 08:02:06;;;;;;;;;;;;;;;21.89;26.88;97384.31;10404800;28;1962;-56
2022/03/19 08:07:08;;;;;;;;;;;;;;;21.88;26.96;97380.88;10427109;28;2314;-56
2022/03/19 08:12:08;;;;;;;;;;;;;;;21.92;27.04;97369.84;10423294;28;2182;-57
2022/03/19 08:17:11;;;;;;;;;;;;;;;21.92;26.91;97365.34;10413440;28;1948;-57
2022/03/19 08:22:12;;;;;;;;;;;;;;;21.92;27.06;97354.78;10426473;28;1883;-53
2022/03/19 08:27:12;;;;;;;;;;;;;;;21.91;27.09;97363.75;10429836;28;2073;-56
2022/03/19 08:32:12;;;;;;;;;;;;;;;21.90;26.95;97366.63;10427842;28;1992;-56
2022/03/19 08:37:13;;;;;;;;;;;;;;;21.91;27.25;97352.41;10426076;28;1906;-57
2022/03/19 08:42:13;;;;;;;;;;;;;;;21.92;27.01;97343.44;10418908;28;1899;-53
2022/03/19 08:47:13;;;;;;;;;;;;;;;21.94;26.97;97338.69;10423823;28;1954;-50
2022/03/19 08:52:14;;;;;;;;;;;;;;;21.90;27.21;97342.88;10413297;28;2021;-57
2022/03/19 08:57:14;;;;;;;;;;;;;;;21.93;26.98;97323.91;10432414;28;1847;-52
2022/03/19 09:02:14;;;;;;;;;;;;;;;21.93;27.25;97327.34;10425373;28;1877;-56
2022/03/19 09:07:15;;;;;;;;;;;;;;;21.96;27.17;97323.41;10429822;28;1914;-54
2022/03/19 09:12:16;;;;;;;;;;;;;;;21.94;27.06;97307.03;10417389;28;2036;-52
2022/03/19 09:17:16;;;;;;;;;;;;;;;21.98;27.20;97305.50;10433848;28;1896;-55
2022/03/19 09:22:17;;;;;;;;;;;;;;;22.00;27.73;97301.56;10425178;28;2798;-55
2022/03/19 09:27:18;;;;;;;;;;;;;;;22.01;27.99;97297.09;10425520;28;2387;-55
2022/03/19 09:32:18;;;;;;;;;;;;;;;22.00;28.08;97283.09;10426457;28;1953;-58
2022/03/19 09:37:19;;;;;;;;;;;;;;;22.01;28.27;97278.59;10424650;28;1911;-59
2022/03/19 09:42:19;;;;;;;;;;;;;;;22.03;28.26;97264.09;10427912;28;1948;-52
2022/03/19 09:47:21;;;;;;;;;;;;;;;21.99;28.56;97268.25;10425104;28;1910;-57
2022/03/19 09:52:22;;;;;;;;;;;;;;;22.00;28.50;97269.06;10424841;28;1843;-54
2022/03/19 09:57:22;;;;;;;;;;;;;;;22.00;28.56;97254.03;10431210;28;1894;-57
2022/03/19 10:02:23;;;;;;;;;;;;;;;22.00;28.74;97251.41;10428834;28;1888;-55
2022/03/19 10:12:43;;;;;;;;;;;;;;;21.99;28.64;97243.72;10414495;28;2254;-56
2022/03/19 10:17:44;;;;;;;;;;;;;;;21.98;28.38;97234.19;10418600;28;1890;-57
2022/03/19 10:22:45;;;;;;;;;;;;;;;21.98;28.16;97227.09;10419528;28;2134;-56
2022/03/19 10:27:45;;;;;;;;;;;;;;;21.96;28.36;97215.16;10424000;28;2275;-56
2022/03/19 10:32:50;;;;;;;;;;;;;;;21.98;28.13;97211.25;10422007;28;2299;-58
2022/03/19 10:37:50;;;;;;;;;;;;;;;21.86;26.47;97192.88;10418568;28;2343;-55
2022/03/19 10:42:51;;;;;;;;;;;;;;;21.94;27.47;97198.78;10419526;28;1917;-56
2022/03/19 10:47:51;;;;;;;;;;;;;;;21.91;27.95;97194.78;10427309;28;2007;-57
2022/03/19 10:52:52;;;;;;;;;;;;;;;21.95;28.22;97177.41;10427526;28;1842;-55
2022/03/19 10:57:56;;;;;;;;;;;;;;;21.98;28.19;97163.72;10422651;28;1824;-54
2022/03/19 11:03:00;;;;;;;;;;;;;;;22.01;27.91;97157.16;10428498;28;2381;-55
2022/03/19 11:08:01;;;;;;;;;;;;;;;22.02;27.79;97143.69;10424511;28;2210;-56
2022/03/19 11:13:03;;;;;;;;;;;;;;;22.06;27.94;97131.56;10414562;28;1850;-54
2022/03/19 11:18:05;;;;;;;;;;;;;;;22.01;27.85;97123.59;10416457;28;1951;-56
2022/03/19 11:23:06;;;;;;;;;;;;;;;22.01;27.77;97120.94;10421999;28;1996;-54
2022/03/19 11:28:07;;;;;;;;;;;;;;;22.06;27.88;97115.72;10425246;28;1902;-57
2022/03/19 11:33:08;;;;;;;;;;;;;;;22.04;27.77;97099.34;10416997;28;1892;-53
2022/03/19 11:38:13;;;;;;;;;;;;;;;22.07;27.88;97090.91;10419064;28;2028;-53
2022/03/19 11:43:18;;;;;;;;;;;;;;;22.12;28.35;97077.75;10443991;22;2658;-75
2022/03/19 11:48:37;;;;;;;;;;;;;;;22.10;28.12;97068.50;10426597;28;1970;-73
2022/03/19 11:53:54;;;;;;;;;;;;;;;22.16;28.64;97065.66;10430848;28;1848;-75
2022/03/19 11:58:54;;;;;;;;;;;;;;;22.18;28.62;97055.63;10423696;28;1957;-71
2022/03/19 12:04:04;;;;;;;;;;;;;;;21.94;25.28;97043.81;10433699;28;1895;-72
2022/03/19 12:09:05;;;;;;;;;;;;;;;22.00;26.46;97026.97;10429746;28;1997;-76
2022/03/19 12:14:10;;;;;;;;;;;;;;;21.79;23.71;97025.16;10431106;28;1898;-72
2022/03/19 12:19:11;;;;;;;;;;;;;;;21.59;23.10;97017.88;10437695;28;1800;-72
2022/03/19 12:24:22;;;;;;;;;;;;;;;21.84;25.50;97004.13;10418422;28;1762;-72
2022/03/19 12:29:30;;;;;;;;;;;;;;;21.84;26.26;96994.34;10407257;28;1969;-73
2022/03/19 12:34:30;;;;;;;;;;;;;;;21.80;25.95;96992.44;10431943;28;1870;-73
2022/03/19 12:39:31;;;;;;;;;;;;;;;21.90;26.43;96995.19;10425051;28;1940;-73
2022/03/19 12:44:36;;;;;;;;;;;;;;;21.96;26.86;96978.34;10429866;28;1828;-72
2022/03/19 12:49:36;;;;;;;;;;;;;;;22.00;26.63;96960.16;10413216;28;1972;-71
2022/03/19 12:54:37;;;;;;;;;;;;;;;21.79;25.84;96959.97;10434246;28;1810;-71
2022/03/19 12:59:37;;;;;;;;;;;;;;;21.70;25.68;96952.78;10403430;28;1925;-73
2022/03/19 13:04:42;;;;;;;;;;;;;;;21.68;25.65;96946.94;10430242;28;1760;-73
2022/03/19 13:09:43;;;;;;;;;;;;;;;21.74;26.27;96938.03;10425837;28;1983;-72
2022/03/19 13:14:47;;;;;;;;;;;;;;;21.83;26.41;96950.53;10414101;28;1805;-71
2022/03/19 13:19:49;;;;;;;;;;;;;;;21.92;26.99;96939.50;10420828;28;2400;-71
2022/03/19 13:24:54;;;;;;;;;;;;;;;21.96;27.29;96943.22;10421487;28;1668;-72
2022/03/19 13:29:59;;;;;;;;;;;;;;;21.98;27.55;96928.72;10426299;28;1973;-72
2022/03/19 13:35:00;;;;;;;;;;;;;;;21.98;27.67;96923.44;10488005;22;2702;-45
2022/03/19 13:40:01;;;;;;;;;;;;;;;22.02;27.73;96921.09;10494469;28;1751;-43
2022/03/19 13:45:04;;;;;;;;;;;;;;;22.02;28.15;96915.81;10515460;28;1901;-41
2022/03/19 13:50:09;;;;;;;;;;;;;;;22.04;28.22;96908.44;10519245;28;1903;-43
2022/03/19 13:55:09;;;;;;;;;;;;;;;22.06;28.26;96906.31;10512446;28;1761;-48
2022/03/19 14:00:13;;;;;;;;;;;;;;;22.08;28.27;96896.31;10519926;28;1937;-43
2022/03/19 14:05:14;;;;;;;;;;;;;;;22.06;28.32;96898.41;10516130;28;1977;-41
2022/03/19 14:10:15;;;;;;;;;;;;;;;22.09;28.19;96882.06;10510704;28;1837;-45
2022/03/19 14:15:17;;;;;;;;;;;;;;;22.04;28.35;96861.72;10520754;28;1860;-44
2022/03/19 14:20:18;;;;;;;;;;;;;;;22.10;28.40;96865.16;10519068;28;1748;-42
2022/03/19 14:25:18;;;;;;;;;;;;;;;22.08;28.57;96868.06;10516645;28;1965;-43
2022/03/19 14:30:19;;;;;;;;;;;;;;;22.07;28.55;96869.09;10518554;28;1745;-43
2022/03/19 14:35:39;;;;;;;;;;;;;;;22.07;28.56;96874.38;10517707;28;1721;-41
2022/03/19 14:40:40;;;;;;;;;;;;;;;22.07;28.45;96871.75;10514980;28;1777;-40
2022/03/19 14:45:40;;;;;;;;;;;;;;;22.06;28.45;96858.81;10520135;28;1929;-45
2022/03/19 14:50:41;;;;;;;;;;;;;;;22.09;28.45;96853.78;10512118;28;1823;-41
2022/03/19 14:55:42;;;;;;;;;;;;;;;22.09;28.44;96845.88;10515223;28;1899;-41
2022/03/19 15:00:42;;;;;;;;;;;;;;;22.08;28.48;96849.56;10512051;28;1925;-43
2022/03/19 15:05:43;;;;;;;;;;;;;;;22.06;28.86;96833.19;10516487;28;2032;-42
2022/03/19 15:10:43;;;;;;;;;;;;;;;22.07;28.52;96845.34;10519496;28;1823;-44
2022/03/19 15:15:47;;;;;;;;;;;;;;;22.07;28.60;96840.06;10526873;28;1712;-42
2022/03/19 15:20:47;;;;;;;;;;;;;;;22.09;28.53;96830.03;10527183;28;1878;-42
2022/03/19 15:25:48;;;;;;;;;;;;;;;22.09;28.93;96835.31;10528811;28;1979;-46
2022/03/19 15:30:49;;;;;;;;;;;;;;;22.09;28.64;96832.66;10506788;28;1835;-49
2022/03/19 15:35:50;;;;;;;;;;;;;;;22.08;28.97;96828.44;10523971;28;1788;-43
2022/03/19 15:40:50;;;;;;;;;;;;;;;22.09;28.61;96822.09;10519552;28;1823;-41
2022/03/19 15:45:51;;;;;;;;;;;;;;;22.05;28.98;96813.13;10531360;28;1969;-41
2022/03/19 15:50:51;;;;;;;;;;;;;;;22.04;28.97;96819.47;10524107;28;1764;-48
2022/03/19 15:55:52;;;;;;;;;;;;;;;22.07;29.23;96812.88;10529262;28;1812;-42
2022/03/19 16:00:53;;;;;;;;;;;;;;;22.02;28.83;96818.91;10523956;28;1895;-48
2022/03/19 16:05:53;;;;;;;;;;;;;;;22.07;28.79;96810.25;10517893;28;1913;-44
2022/03/19 16:10:53;;;;;;;;;;;;;;;22.05;28.67;96815.75;10528235;28;1988;-47
2022/03/19 16:15:54;;;;;;;;;;;;;;;22.02;28.32;96821.56;10516020;28;1765;-48
2022/03/19 16:20:54;;;;;;;;;;;;;;;22.03;28.49;96823.13;10520995;28;1845;-50
2022/03/19 16:25:54;;;;;;;;;;;;;;;22.02;28.30;96816.28;10518438;28;1961;-43
2022/03/19 16:30:55;;;;;;;;;;;;;;;22.00;28.10;96815.75;10523098;28;1684;-46
2022/03/19 16:35:55;;;;;;;;;;;;;;;22.03;27.98;96814.44;10511807;28;1863;-45
2022/03/19 16:40:55;;;;;;;;;;;;;;;22.02;27.69;96811.00;10499137;28;1871;-48
2022/03/19 16:45:56;;;;;;;;;;;;;;;21.99;28.01;96814.13;10522689;28;2281;-47
2022/03/19 16:50:56;;;;;;;;;;;;;;;22.01;27.95;96817.31;10522221;28;1772;-41
2022/03/19 16:55:57;;;;;;;;;;;;;;;22.04;28.17;96826.56;10524648;28;2028;-43
2022/03/19 17:00:57;;;;;;;;;;;;;;;22.06;28.00;96827.91;10519163;28;1814;-45
2022/03/19 17:05:57;;;;;;;;;;;;;;;22.08;27.64;96820.53;10518097;28;1910;-44
2022/03/19 17:11:00;;;;;;;;;;;;;;;22.12;27.75;96823.44;10523151;28;1844;-43
2022/03/19 17:16:00;;;;;;;;;;;;;;;22.18;27.82;96831.13;10519051;28;1829;-41
2022/03/19 17:21:00;;;;;;;;;;;;;;;22.18;27.93;96828.50;10520978;28;1931;-45
2022/03/19 17:26:01;;;;;;;;;;;;;;;22.17;28.15;96834.03;10525509;28;1978;-40
2022/03/19 17:31:01;;;;;;;;;;;;;;;22.22;27.84;96829.56;10521013;28;1906;-44
2022/03/19 17:36:01;;;;;;;;;;;;;;;22.26;27.99;96827.19;10516900;28;1842;-51
2022/03/19 17:41:02;;;;;;;;;;;;;;;22.26;28.25;96833.28;10521971;22;3708;-53
2022/03/19 17:46:02;;;;;;;;;;;;;;;22.26;28.10;96832.47;10479947;28;1952;-58
2022/03/19 17:51:03;;;;;;;;;;;;;;;22.27;28.07;96829.59;10464944;28;1827;-55
2022/03/19 17:56:04;;;;;;;;;;;;;;;22.27;27.63;96828.81;10442781;28;1865;-56
2022/03/19 18:01:04;;;;;;;;;;;;;;;22.28;27.78;96820.63;10435799;28;2132;-55
2022/03/19 18:06:05;;;;;;;;;;;;;;;22.30;27.56;96818.50;10436800;28;1910;-57
2022/03/19 18:11:06;;;;;;;;;;;;;;;22.31;27.69;96820.09;10447518;28;1903;-57
2022/03/19 18:16:07;;;;;;;;;;;;;;;22.30;27.68;96802.66;10433622;28;1886;-57
2022/03/19 18:21:07;;;;;;;;;;;;;;;22.31;27.73;96809.53;10449056;28;1861;-58
2022/03/19 18:26:07;;;;;;;;;;;;;;;22.29;27.95;96800.28;10435865;28;1914;-59
2022/03/19 18:31:09;;;;;;;;;;;;;;;22.30;28.12;96802.66;10453887;28;1907;-52
2022/03/19 18:36:10;;;;;;;;;;;;;;;22.31;28.45;96793.69;10434563;28;1852;-58
2022/03/19 18:41:11;;;;;;;;;;;;;;;22.34;28.98;96787.88;10440262;28;1873;-57
2022/03/19 18:46:12;;;;;;;;;;;;;;;22.36;37.69;96795.56;10435087;28;1915;-56
2022/03/19 18:51:14;;;;;;;;;;;;;;;22.22;38.79;96795.25;10441171;28;1853;-55
2022/03/19 18:56:14;;;;;;;;;;;;;;;22.11;40.08;96791.00;10437219;28;2007;-58
2022/03/19 19:01:14;;;;;;;;;;;;;;;22.02;40.74;96794.34;10421075;28;1874;-57
2022/03/19 19:06:15;;;;;;;;;;;;;;;21.95;41.29;96785.91;10446237;28;1969;-59
2022/03/19 19:11:15;;;;;;;;;;;;;;;21.89;41.11;96790.34;10438244;28;1865;-57
2022/03/19 19:16:17;;;;;;;;;;;;;;;21.85;42.15;96787.41;10433241;28;1813;-59
2022/03/19 19:21:17;;;;;;;;;;;;;;;21.81;42.83;96785.50;10442565;28;1935;-58
2022/03/19 19:26:18;;;;;;;;;;;;;;;21.79;42.66;96779.69;10441819;28;1918;-58
2022/03/19 19:31:19;;;;;;;;;;;;;;;21.76;42.82;96772.31;10435710;28;1808;-58
2022/03/19 19:36:19;;;;;;;;;;;;;;;21.75;42.90;96768.06;10414588;28;2277;-57
2022/03/19 19:41:20;;;;;;;;;;;;;;;21.71;43.11;96757.25;10422751;28;1792;-57
2022/03/19 19:46:20;;;;;;;;;;;;;;;21.68;44.11;96755.09;10427289;28;1969;-56
2022/03/19 19:51:20;;;;;;;;;;;;;;;21.64;43.94;96753.22;10429143;28;1817;-58
2022/03/19 19:56:21;;;;;;;;;;;;;;;21.62;44.36;96742.94;10431855;28;1807;-57
2022/03/19 20:01:22;;;;;;;;;;;;;;;21.61;44.65;96735.28;10436855;28;1845;-57
2022/03/19 20:07:38;;;;;;;;;;;;;;;21.57;44.36;96747.41;10431528;28;1918;-57
2022/03/19 20:11:42;;;;;;;;;;;;;;;21.56;43.95;96737.88;10438288;28;2157;-55
2022/03/19 20:16:43;;;;;;;;;;;;;;;21.59;43.62;96730.25;10434691;28;1848;-57
2022/03/19 20:21:43;;;;;;;;;;;;;;;21.55;44.37;96731.03;10427661;28;1670;-57
2022/03/19 20:26:44;;;;;;;;;;;;;;;21.52;44.22;96723.59;10446830;28;1989;-58
2022/03/19 20:31:45;;;;;;;;;;;;;;;21.53;45.24;96727.84;10446855;28;1627;-56
2022/03/19 20:36:45;;;;;;;;;;;;;;;21.52;44.65;96718.34;10427530;28;1638;-55
2022/03/19 20:41:47;;;;;;;;;;;;;;;21.50;44.78;96717.78;10433231;28;2361;-57
2022/03/19 20:46:47;;;;;;;;;;;;;;;21.49;45.05;96716.22;10431750;28;1902;-57
2022/03/19 20:51:47;;;;;;;;;;;;;;;21.48;45.08;96709.34;10438157;28;1639;-56
2022/03/19 20:56:48;;;;;;;;;;;;;;;21.47;44.89;96710.41;10422345;28;1642;-57
2022/03/19 21:01:48;;;;;;;;;;;;;;;21.46;44.81;96714.09;10455023;28;1770;-55
2022/03/19 21:06:51;;;;;;;;;;;;;;;21.44;45.36;96711.72;10423498;28;1918;-54
2022/03/19 21:11:52;;;;;;;;;;;;;;;21.44;44.60;96716.19;10434597;28;1626;-56
2022/03/19 21:16:52;;;;;;;;;;;;;;;21.43;44.68;96704.06;10431135;28;1521;-55
2022/03/19 21:21:52;;;;;;;;;;;;;;;21.42;44.80;96707.72;10431679;28;1585;-55
2022/03/19 21:26:53;;;;;;;;;;;;;;;21.41;44.05;96704.28;10435600;28;1909;-56
2022/03/19 21:31:53;;;;;;;;;;;;;;;21.38;44.82;96699.53;10441188;28;1554;-56
2022/03/19 21:36:53;;;;;;;;;;;;;;;21.39;44.19;96689.78;10426564;28;1926;-57
2022/03/19 21:41:54;;;;;;;;;;;;;;;21.38;44.56;96698.75;10435422;28;1600;-57
2022/03/19 21:46:55;;;;;;;;;;;;;;;21.36;44.36;96698.22;10434750;28;1906;-56
2022/03/19 21:51:56;;;;;;;;;;;;;;;21.36;44.07;96687.66;10435205;28;1687;-57
2022/03/19 21:56:56;;;;;;;;;;;;;;;21.36;43.83;96685.81;10444408;28;1789;-55
2022/03/19 22:01:56;;;;;;;;;;;;;;;21.37;44.67;96687.41;10435457;28;1876;-57
2022/03/19 22:06:57;;;;;;;;;;;;;;;21.36;44.17;96685.81;10429545;28;1918;-57
2022/03/19 22:11:58;;;;;;;;;;;;;;;21.34;43.77;96682.66;10443740;28;1904;-56
2022/03/19 22:16:58;;;;;;;;;;;;;;;21.31;43.57;96696.31;10449391;28;1888;-57
2022/03/19 22:21:58;;;;;;;;;;;;;;;21.27;43.23;96697.88;10433146;28;1860;-56
2022/03/19 22:26:59;;;;;;;;;;;;;;;21.23;43.36;96688.91;10430490;28;2007;-56
2022/03/19 22:31:59;;;;;;;;;;;;;;;21.23;43.25;96691.53;10434374;28;1916;-56
2022/03/19 22:37:00;;;;;;;;;;;;;;;21.20;42.66;96692.06;10434901;28;1856;-54
2022/03/19 22:42:01;;;;;;;;;;;;;;;21.21;42.48;96692.84;10436338;28;1958;-58
2022/03/19 22:47:01;;;;;;;;;;;;;;;21.18;42.58;96690.72;10428947;28;1996;-55
2022/03/19 22:52:02;;;;;;;;;;;;;;;21.16;42.22;96692.81;10432658;28;2199;-54
2022/03/19 22:57:02;;;;;;;;;;;;;;;21.17;42.21;96691.75;10424898;28;2341;-56
2022/03/19 23:02:03;;;;;;;;;;;;;;;21.15;41.90;96680.66;10425350;28;2295;-56
2022/03/19 23:07:03;;;;;;;;;;;;;;;21.14;41.98;96684.38;10423855;28;1973;-56
2022/03/19 23:12:07;;;;;;;;;;;;;;;21.14;41.58;96690.44;10426813;28;1835;-55
2022/03/19 23:17:10;;;;;;;;;;;;;;;21.13;41.39;96686.19;10446331;28;2151;-57
2022/03/19 23:22:11;;;;;;;;;;;;;;;21.12;41.44;96686.47;10427262;28;1801;-55
2022/03/19 23:27:12;;;;;;;;;;;;;;;21.13;41.11;96686.19;10428182;28;2048;-55
2022/03/19 23:32:13;;;;;;;;;;;;;;;21.13;40.91;96685.41;10435760;28;1805;-55
2022/03/19 23:37:13;;;;;;;;;;;;;;;21.13;40.79;96682.78;10432240;28;1828;-56
2022/03/19 23:42:13;;;;;;;;;;;;;;;21.12;40.45;96679.34;10471897;22;2689;-69
2022/03/19 23:47:15;;;;;;;;;;;;;;;21.13;40.11;96674.84;10521368;28;1909;-70
2022/03/19 23:52:17;;;;;;;;;;;;;;;21.13;40.00;96674.84;10517519;28;2087;-69
2022/03/19 23:57:17;;;;;;;;;;;;;;;21.13;39.60;96682.78;10525381;28;2016;-70
